sensor_id;sensor_type;location;lat;lon;timestamp;temperature;humidity
19085;DHT22;9675;51.538;6.728;2022-07-01T00:01:05;21.20;99.90
19085;DHT22;9675;51.538;6.728;2022-07-01T00:03:32;21.20;99.90
19085;DHT22;9675;51.538;6.728;2022-07-01T00:06:01;21.20;99.90
19085;DHT22;9675;51.538;6.728;2022-07-01T00:08:28;21.20;99.90
19085;DHT22;9675;51.538;6.728;2022-07-01T00:10:57;21.20;99.90
19085;DHT22;9675;51.538;6.728;2022-07-01T00:13:24;21.20;99.90
19085;DHT22;9675;51.538;6.728;2022-07-01T00:15:52;21.10;99.90
19085;DHT22;9675;51.538;6.728;2022-07-01T00:18:19;21.10;99.90
19085;DHT22;9675;51.538;6.728;2022-07-01T00:20:47;21.10;99.90
19085;DHT22;9675;51.538;6.728;2022-07-01T00:23:14;21.10;99.90
19085;DHT22;9675;51.538;6.728;2022-07-01T00:25:42;21.10;99.90
19085;DHT22;9675;51.538;6.728;2022-07-01T00:28:11;21.10;99.90
19085;DHT22;9675;51.538;6.728;2022-07-01T00:30:39;21.10;99.90
19085;DHT22;9675;51.538;6.728;2022-07-01T00:33:06;21.10;99.90
19085;DHT22;9675;51.538;6.728;2022-07-01T00:35:33;21.00;99.90
19085;DHT22;9675;51.538;6.728;2022-07-01T00:38:00;21.00;99.90
19085;DHT22;9675;51.538;6.728;2022-07-01T00:40:27;21.00;99.90
19085;DHT22;9675;51.538;6.728;2022-07-01T00:42:55;21.00;99.90
19085;DHT22;9675;51.538;6.728;2022-07-01T00:45:23;21.00;99.90
19085;DHT22;9675;51.538;6.728;2022-07-01T00:47:50;20.90;99.90
19085;DHT22;9675;51.538;6.728;2022-07-01T00:50:18;20.90;99.90
19085;DHT22;9675;51.538;6.728;2022-07-01T00:52:45;20.90;99.90
19085;DHT22;9675;51.538;6.728;2022-07-01T00:55:14;20.90;99.90
19085;DHT22;9675;51.538;6.728;2022-07-01T00:57:42;20.90;99.90
19085;DHT22;9675;51.538;6.728;2022-07-01T01:00:13;20.80;99.90
19085;DHT22;9675;51.538;6.728;2022-07-01T01:02:44;20.80;99.90
19085;DHT22;9675;51.538;6.728;2022-07-01T01:05:11;20.70;99.90
19085;DHT22;9675;51.538;6.728;2022-07-01T01:07:39;20.70;99.90
19085;DHT22;9675;51.538;6.728;2022-07-01T01:10:07;20.60;99.90
19085;DHT22;9675;51.538;6.728;2022-07-01T01:12:34;20.60;99.90
19085;DHT22;9675;51.538;6.728;2022-07-01T01:15:02;20.60;99.90
19085;DHT22;9675;51.538;6.728;2022-07-01T01:17:30;20.60;99.90
19085;DHT22;9675;51.538;6.728;2022-07-01T01:19:58;20.60;99.90
19085;DHT22;9675;51.538;6.728;2022-07-01T01:22:27;20.50;99.90
19085;DHT22;9675;51.538;6.728;2022-07-01T01:24:54;20.50;99.90
19085;DHT22;9675;51.538;6.728;2022-07-01T01:27:21;20.50;99.90
19085;DHT22;9675;51.538;6.728;2022-07-01T01:29:48;20.40;99.90
19085;DHT22;9675;51.538;6.728;2022-07-01T01:32:15;20.40;99.90
19085;DHT22;9675;51.538;6.728;2022-07-01T01:34:42;20.40;99.90
19085;DHT22;9675;51.538;6.728;2022-07-01T01:37:09;20.40;99.90
19085;DHT22;9675;51.538;6.728;2022-07-01T01:39:38;20.40;99.90
19085;DHT22;9675;51.538;6.728;2022-07-01T01:42:06;20.40;99.90
19085;DHT22;9675;51.538;6.728;2022-07-01T01:44:33;20.30;99.90
19085;DHT22;9675;51.538;6.728;2022-07-01T01:47:01;20.30;99.90
19085;DHT22;9675;51.538;6.728;2022-07-01T01:49:28;20.30;99.90
19085;DHT22;9675;51.538;6.728;2022-07-01T01:51:56;20.30;99.90
19085;DHT22;9675;51.538;6.728;2022-07-01T01:54:25;20.30;99.90
19085;DHT22;9675;51.538;6.728;2022-07-01T01:56:53;20.20;99.90
19085;DHT22;9675;51.538;6.728;2022-07-01T01:59:21;20.20;99.90
19085;DHT22;9675;51.538;6.728;2022-07-01T02:01:48;20.20;99.90
19085;DHT22;9675;51.538;6.728;2022-07-01T02:04:15;20.10;99.90
19085;DHT22;9675;51.538;6.728;2022-07-01T02:06:42;20.10;99.90
19085;DHT22;9675;51.538;6.728;2022-07-01T02:09:09;20.10;99.90
19085;DHT22;9675;51.538;6.728;2022-07-01T02:11:37;20.10;99.90
19085;DHT22;9675;51.538;6.728;2022-07-01T02:14:05;20.10;99.90
19085;DHT22;9675;51.538;6.728;2022-07-01T02:16:32;20.00;99.90
19085;DHT22;9675;51.538;6.728;2022-07-01T02:18:59;20.00;99.90
19085;DHT22;9675;51.538;6.728;2022-07-01T02:21:26;20.00;99.90
19085;DHT22;9675;51.538;6.728;2022-07-01T02:23:54;19.90;99.90
19085;DHT22;9675;51.538;6.728;2022-07-01T02:26:21;19.90;99.90
19085;DHT22;9675;51.538;6.728;2022-07-01T02:28:48;19.90;99.90
19085;DHT22;9675;51.538;6.728;2022-07-01T02:31:17;19.80;99.90
19085;DHT22;9675;51.538;6.728;2022-07-01T02:33:44;19.80;99.90
19085;DHT22;9675;51.538;6.728;2022-07-01T02:36:11;19.80;99.90
19085;DHT22;9675;51.538;6.728;2022-07-01T02:38:38;19.80;99.90
19085;DHT22;9675;51.538;6.728;2022-07-01T02:41:05;19.70;99.90
19085;DHT22;9675;51.538;6.728;2022-07-01T02:43:32;19.70;99.90
19085;DHT22;9675;51.538;6.728;2022-07-01T02:45:59;19.70;99.90
19085;DHT22;9675;51.538;6.728;2022-07-01T02:48:27;19.70;99.90
19085;DHT22;9675;51.538;6.728;2022-07-01T02:50:54;19.70;99.90
19085;DHT22;9675;51.538;6.728;2022-07-01T02:53:21;19.60;99.90
19085;DHT22;9675;51.538;6.728;2022-07-01T02:55:49;19.60;99.90
19085;DHT22;9675;51.538;6.728;2022-07-01T02:58:17;19.50;99.90
19085;DHT22;9675;51.538;6.728;2022-07-01T03:00:44;19.50;99.90
19085;DHT22;9675;51.538;6.728;2022-07-01T03:03:14;19.50;99.90
19085;DHT22;9675;51.538;6.728;2022-07-01T03:05:42;19.50;99.90
19085;DHT22;9675;51.538;6.728;2022-07-01T03:08:09;19.50;99.90
19085;DHT22;9675;51.538;6.728;2022-07-01T03:10:37;19.50;99.90
19085;DHT22;9675;51.538;6.728;2022-07-01T03:13:04;19.40;99.90
19085;DHT22;9675;51.538;6.728;2022-07-01T03:15:31;19.40;99.90
19085;DHT22;9675;51.538;6.728;2022-07-01T03:17:58;19.50;99.90
19085;DHT22;9675;51.538;6.728;2022-07-01T03:20:25;19.40;99.90
19085;DHT22;9675;51.538;6.728;2022-07-01T03:22:53;19.30;99.90
19085;DHT22;9675;51.538;6.728;2022-07-01T03:25:21;19.30;99.90
19085;DHT22;9675;51.538;6.728;2022-07-01T03:27:48;19.30;99.90
19085;DHT22;9675;51.538;6.728;2022-07-01T03:30:15;19.30;99.90
19085;DHT22;9675;51.538;6.728;2022-07-01T03:32:43;19.30;99.90
19085;DHT22;9675;51.538;6.728;2022-07-01T03:35:10;19.30;99.90
19085;DHT22;9675;51.538;6.728;2022-07-01T03:37:56;19.30;99.90
19085;DHT22;9675;51.538;6.728;2022-07-01T03:40:23;19.30;99.90
19085;DHT22;9675;51.538;6.728;2022-07-01T03:42:51;19.30;99.90
19085;DHT22;9675;51.538;6.728;2022-07-01T03:45:18;19.20;99.90
19085;DHT22;9675;51.538;6.728;2022-07-01T03:47:46;19.20;99.90
19085;DHT22;9675;51.538;6.728;2022-07-01T03:50:13;19.20;99.90
19085;DHT22;9675;51.538;6.728;2022-07-01T03:52:40;19.20;99.90
19085;DHT22;9675;51.538;6.728;2022-07-01T03:55:10;19.20;99.90
19085;DHT22;9675;51.538;6.728;2022-07-01T03:57:37;19.20;99.90
19085;DHT22;9675;51.538;6.728;2022-07-01T04:00:05;19.20;99.90
19085;DHT22;9675;51.538;6.728;2022-07-01T04:02:34;19.20;99.90
19085;DHT22;9675;51.538;6.728;2022-07-01T04:05:01;19.20;99.90
19085;DHT22;9675;51.538;6.728;2022-07-01T04:07:28;19.20;99.90
19085;DHT22;9675;51.538;6.728;2022-07-01T04:09:55;19.20;99.90
19085;DHT22;9675;51.538;6.728;2022-07-01T04:12:24;19.20;99.90
19085;DHT22;9675;51.538;6.728;2022-07-01T04:14:51;19.20;99.90
19085;DHT22;9675;51.538;6.728;2022-07-01T04:17:18;19.20;99.90
19085;DHT22;9675;51.538;6.728;2022-07-01T04:19:46;19.10;99.90
19085;DHT22;9675;51.538;6.728;2022-07-01T04:22:13;19.10;99.90
19085;DHT22;9675;51.538;6.728;2022-07-01T04:24:58;19.10;99.90
19085;DHT22;9675;51.538;6.728;2022-07-01T04:27:27;19.10;99.90
19085;DHT22;9675;51.538;6.728;2022-07-01T04:29:54;19.10;99.90
19085;DHT22;9675;51.538;6.728;2022-07-01T04:32:22;19.10;99.90
19085;DHT22;9675;51.538;6.728;2022-07-01T04:34:49;19.10;99.90
19085;DHT22;9675;51.538;6.728;2022-07-01T04:37:17;19.10;99.90
19085;DHT22;9675;51.538;6.728;2022-07-01T04:39:45;19.10;99.90
19085;DHT22;9675;51.538;6.728;2022-07-01T04:42:12;19.10;99.90
19085;DHT22;9675;51.538;6.728;2022-07-01T04:44:41;19.10;99.90
19085;DHT22;9675;51.538;6.728;2022-07-01T04:47:09;19.10;99.90
19085;DHT22;9675;51.538;6.728;2022-07-01T04:49:36;19.00;99.90
19085;DHT22;9675;51.538;6.728;2022-07-01T04:52:03;19.00;99.90
19085;DHT22;9675;51.538;6.728;2022-07-01T04:54:30;19.00;99.90
19085;DHT22;9675;51.538;6.728;2022-07-01T04:57:01;18.90;99.90
19085;DHT22;9675;51.538;6.728;2022-07-01T04:59:28;18.90;99.90
19085;DHT22;9675;51.538;6.728;2022-07-01T05:01:57;18.90;99.90
19085;DHT22;9675;51.538;6.728;2022-07-01T05:04:24;18.90;99.90
19085;DHT22;9675;51.538;6.728;2022-07-01T05:06:53;18.80;99.90
19085;DHT22;9675;51.538;6.728;2022-07-01T05:09:21;18.90;99.90
19085;DHT22;9675;51.538;6.728;2022-07-01T05:11:48;18.80;99.90
19085;DHT22;9675;51.538;6.728;2022-07-01T05:14:15;18.80;99.90
19085;DHT22;9675;51.538;6.728;2022-07-01T05:16:42;18.90;99.90
19085;DHT22;9675;51.538;6.728;2022-07-01T05:19:11;18.80;99.90
19085;DHT22;9675;51.538;6.728;2022-07-01T05:21:55;18.80;99.90
19085;DHT22;9675;51.538;6.728;2022-07-01T05:24:22;18.80;99.90
19085;DHT22;9675;51.538;6.728;2022-07-01T05:26:50;18.80;99.90
19085;DHT22;9675;51.538;6.728;2022-07-01T05:29:18;18.80;99.90
19085;DHT22;9675;51.538;6.728;2022-07-01T05:31:45;18.80;99.90
19085;DHT22;9675;51.538;6.728;2022-07-01T05:34:14;18.80;99.90
19085;DHT22;9675;51.538;6.728;2022-07-01T05:36:41;18.80;99.90
19085;DHT22;9675;51.538;6.728;2022-07-01T05:39:08;18.80;99.90
19085;DHT22;9675;51.538;6.728;2022-07-01T05:41:35;18.80;99.90
19085;DHT22;9675;51.538;6.728;2022-07-01T05:44:02;18.80;99.90
19085;DHT22;9675;51.538;6.728;2022-07-01T05:46:30;18.80;99.90
19085;DHT22;9675;51.538;6.728;2022-07-01T05:48:57;18.80;99.90
19085;DHT22;9675;51.538;6.728;2022-07-01T05:51:25;18.80;99.90
19085;DHT22;9675;51.538;6.728;2022-07-01T05:53:52;18.90;99.90
19085;DHT22;9675;51.538;6.728;2022-07-01T05:56:19;18.80;99.90
19085;DHT22;9675;51.538;6.728;2022-07-01T05:58:46;18.80;99.90
19085;DHT22;9675;51.538;6.728;2022-07-01T06:01:14;18.70;99.90
19085;DHT22;9675;51.538;6.728;2022-07-01T06:03:41;18.80;99.90
19085;DHT22;9675;51.538;6.728;2022-07-01T06:06:08;18.80;99.90
19085;DHT22;9675;51.538;6.728;2022-07-01T06:08:37;18.70;99.90
19085;DHT22;9675;51.538;6.728;2022-07-01T06:11:04;18.70;99.90
19085;DHT22;9675;51.538;6.728;2022-07-01T06:13:31;18.70;99.90
19085;DHT22;9675;51.538;6.728;2022-07-01T06:15:58;18.70;99.90
19085;DHT22;9675;51.538;6.728;2022-07-01T06:18:25;18.70;99.90
19085;DHT22;9675;51.538;6.728;2022-07-01T06:20:53;18.70;99.90
19085;DHT22;9675;51.538;6.728;2022-07-01T06:23:20;18.70;99.90
19085;DHT22;9675;51.538;6.728;2022-07-01T06:25:49;18.70;99.90
19085;DHT22;9675;51.538;6.728;2022-07-01T06:28:16;18.70;99.90
19085;DHT22;9675;51.538;6.728;2022-07-01T06:30:43;18.60;99.90
19085;DHT22;9675;51.538;6.728;2022-07-01T06:33:11;18.70;99.90
19085;DHT22;9675;51.538;6.728;2022-07-01T06:35:40;18.70;99.90
19085;DHT22;9675;51.538;6.728;2022-07-01T06:38:07;18.70;99.90
19085;DHT22;9675;51.538;6.728;2022-07-01T06:40:34;18.70;99.90
19085;DHT22;9675;51.538;6.728;2022-07-01T06:43:03;18.70;99.90
19085;DHT22;9675;51.538;6.728;2022-07-01T06:45:30;18.70;99.90
19085;DHT22;9675;51.538;6.728;2022-07-01T06:47:58;18.70;99.90
19085;DHT22;9675;51.538;6.728;2022-07-01T06:50:25;18.70;99.90
19085;DHT22;9675;51.538;6.728;2022-07-01T06:52:52;18.70;99.90
19085;DHT22;9675;51.538;6.728;2022-07-01T06:55:19;18.80;99.90
19085;DHT22;9675;51.538;6.728;2022-07-01T06:57:46;18.80;99.90
19085;DHT22;9675;51.538;6.728;2022-07-01T07:00:15;18.80;99.90
19085;DHT22;9675;51.538;6.728;2022-07-01T07:02:42;18.80;99.90
19085;DHT22;9675;51.538;6.728;2022-07-01T07:05:09;18.80;99.90
19085;DHT22;9675;51.538;6.728;2022-07-01T07:07:37;18.80;99.90
19085;DHT22;9675;51.538;6.728;2022-07-01T07:10:04;18.80;99.90
19085;DHT22;9675;51.538;6.728;2022-07-01T07:12:32;18.70;99.90
19085;DHT22;9675;51.538;6.728;2022-07-01T07:14:59;18.80;99.90
19085;DHT22;9675;51.538;6.728;2022-07-01T07:17:28;18.80;99.90
19085;DHT22;9675;51.538;6.728;2022-07-01T07:19:55;18.80;99.90
19085;DHT22;9675;51.538;6.728;2022-07-01T07:22:23;18.80;99.90
19085;DHT22;9675;51.538;6.728;2022-07-01T07:24:50;18.80;99.90
19085;DHT22;9675;51.538;6.728;2022-07-01T07:27:17;18.80;99.90
19085;DHT22;9675;51.538;6.728;2022-07-01T07:29:45;18.90;99.90
19085;DHT22;9675;51.538;6.728;2022-07-01T07:32:12;18.90;99.90
19085;DHT22;9675;51.538;6.728;2022-07-01T07:34:40;18.90;99.90
19085;DHT22;9675;51.538;6.728;2022-07-01T07:37:07;18.90;99.90
19085;DHT22;9675;51.538;6.728;2022-07-01T07:39:35;18.90;99.90
19085;DHT22;9675;51.538;6.728;2022-07-01T07:42:03;18.90;99.90
19085;DHT22;9675;51.538;6.728;2022-07-01T07:44:31;18.90;99.90
19085;DHT22;9675;51.538;6.728;2022-07-01T07:47:02;19.00;99.90
19085;DHT22;9675;51.538;6.728;2022-07-01T07:49:29;19.00;99.90
19085;DHT22;9675;51.538;6.728;2022-07-01T07:51:58;19.00;99.90
19085;DHT22;9675;51.538;6.728;2022-07-01T07:54:25;19.10;99.90
19085;DHT22;9675;51.538;6.728;2022-07-01T07:56:52;19.00;99.90
19085;DHT22;9675;51.538;6.728;2022-07-01T07:59:19;19.00;99.90
19085;DHT22;9675;51.538;6.728;2022-07-01T08:01:46;19.00;99.90
19085;DHT22;9675;51.538;6.728;2022-07-01T08:04:13;19.00;99.90
19085;DHT22;9675;51.538;6.728;2022-07-01T08:06:40;19.10;99.90
19085;DHT22;9675;51.538;6.728;2022-07-01T08:09:09;19.00;99.90
19085;DHT22;9675;51.538;6.728;2022-07-01T08:11:36;19.10;99.90
19085;DHT22;9675;51.538;6.728;2022-07-01T08:14:03;19.10;99.90
19085;DHT22;9675;51.538;6.728;2022-07-01T08:16:31;19.20;99.90
19085;DHT22;9675;51.538;6.728;2022-07-01T08:18:58;19.20;99.90
19085;DHT22;9675;51.538;6.728;2022-07-01T08:21:25;19.20;99.90
19085;DHT22;9675;51.538;6.728;2022-07-01T08:23:52;19.20;99.90
19085;DHT22;9675;51.538;6.728;2022-07-01T08:26:21;19.20;99.90
19085;DHT22;9675;51.538;6.728;2022-07-01T08:28:48;19.20;99.90
19085;DHT22;9675;51.538;6.728;2022-07-01T08:31:15;19.30;99.90
19085;DHT22;9675;51.538;6.728;2022-07-01T08:33:42;19.30;99.90
19085;DHT22;9675;51.538;6.728;2022-07-01T08:36:10;19.30;99.90
19085;DHT22;9675;51.538;6.728;2022-07-01T08:38:39;19.30;99.90
19085;DHT22;9675;51.538;6.728;2022-07-01T08:41:08;19.30;99.90
19085;DHT22;9675;51.538;6.728;2022-07-01T08:43:37;19.40;99.90
19085;DHT22;9675;51.538;6.728;2022-07-01T08:46:07;19.40;99.90
19085;DHT22;9675;51.538;6.728;2022-07-01T08:48:35;19.50;99.90
19085;DHT22;9675;51.538;6.728;2022-07-01T08:51:03;19.50;99.90
19085;DHT22;9675;51.538;6.728;2022-07-01T08:53:31;19.50;99.90
19085;DHT22;9675;51.538;6.728;2022-07-01T08:55:58;19.60;99.90
19085;DHT22;9675;51.538;6.728;2022-07-01T08:58:44;19.60;99.90
19085;DHT22;9675;51.538;6.728;2022-07-01T09:01:13;19.70;99.90
19085;DHT22;9675;51.538;6.728;2022-07-01T09:03:41;19.80;99.90
19085;DHT22;9675;51.538;6.728;2022-07-01T09:06:14;19.80;99.90
19085;DHT22;9675;51.538;6.728;2022-07-01T09:08:42;19.80;99.90
19085;DHT22;9675;51.538;6.728;2022-07-01T09:11:15;19.90;99.90
19085;DHT22;9675;51.538;6.728;2022-07-01T09:13:45;19.90;99.90
19085;DHT22;9675;51.538;6.728;2022-07-01T09:16:39;20.00;99.90
19085;DHT22;9675;51.538;6.728;2022-07-01T09:19:07;20.10;99.90
19085;DHT22;9675;51.538;6.728;2022-07-01T09:21:35;20.10;99.90
19085;DHT22;9675;51.538;6.728;2022-07-01T09:24:04;20.20;99.90
19085;DHT22;9675;51.538;6.728;2022-07-01T09:26:52;20.30;99.90
19085;DHT22;9675;51.538;6.728;2022-07-01T09:29:31;20.40;99.90
19085;DHT22;9675;51.538;6.728;2022-07-01T09:32:00;20.40;99.90
19085;DHT22;9675;51.538;6.728;2022-07-01T09:34:32;20.50;99.90
19085;DHT22;9675;51.538;6.728;2022-07-01T09:37:02;20.50;99.90
19085;DHT22;9675;51.538;6.728;2022-07-01T09:39:29;20.60;99.90
19085;DHT22;9675;51.538;6.728;2022-07-01T09:41:57;20.60;99.90
19085;DHT22;9675;51.538;6.728;2022-07-01T09:44:26;20.70;99.90
19085;DHT22;9675;51.538;6.728;2022-07-01T09:46:56;20.80;99.90
19085;DHT22;9675;51.538;6.728;2022-07-01T09:49:26;20.90;99.90
19085;DHT22;9675;51.538;6.728;2022-07-01T09:51:53;20.90;99.90
19085;DHT22;9675;51.538;6.728;2022-07-01T09:54:21;21.00;99.90
19085;DHT22;9675;51.538;6.728;2022-07-01T09:56:48;21.10;99.90
19085;DHT22;9675;51.538;6.728;2022-07-01T09:59:15;21.10;99.90
19085;DHT22;9675;51.538;6.728;2022-07-01T10:01:43;21.10;99.90
19085;DHT22;9675;51.538;6.728;2022-07-01T10:04:12;21.20;99.90
19085;DHT22;9675;51.538;6.728;2022-07-01T10:06:58;21.30;99.90
19085;DHT22;9675;51.538;6.728;2022-07-01T10:09:59;21.40;99.90
19085;DHT22;9675;51.538;6.728;2022-07-01T10:12:39;21.40;99.90
19085;DHT22;9675;51.538;6.728;2022-07-01T10:15:11;21.50;99.90
19085;DHT22;9675;51.538;6.728;2022-07-01T10:17:46;21.60;99.90
19085;DHT22;9675;51.538;6.728;2022-07-01T10:20:16;21.60;99.90
19085;DHT22;9675;51.538;6.728;2022-07-01T10:22:45;21.70;99.90
19085;DHT22;9675;51.538;6.728;2022-07-01T10:25:38;21.70;99.90
19085;DHT22;9675;51.538;6.728;2022-07-01T10:28:19;21.70;99.90
19085;DHT22;9675;51.538;6.728;2022-07-01T10:30:54;21.70;99.90
19085;DHT22;9675;51.538;6.728;2022-07-01T10:33:41;21.70;99.90
19085;DHT22;9675;51.538;6.728;2022-07-01T10:36:15;21.70;99.90
19085;DHT22;9675;51.538;6.728;2022-07-01T10:41:59;21.80;99.90
19085;DHT22;9675;51.538;6.728;2022-07-01T10:44:29;21.90;99.90
19085;DHT22;9675;51.538;6.728;2022-07-01T10:47:04;22.00;99.90
19085;DHT22;9675;51.538;6.728;2022-07-01T10:49:54;22.10;99.90
19085;DHT22;9675;51.538;6.728;2022-07-01T10:52:25;22.20;99.90
19085;DHT22;9675;51.538;6.728;2022-07-01T10:54:54;22.40;99.90
19085;DHT22;9675;51.538;6.728;2022-07-01T10:57:31;22.50;99.90
19085;DHT22;9675;51.538;6.728;2022-07-01T11:03:25;22.70;99.90
19085;DHT22;9675;51.538;6.728;2022-07-01T11:05:54;22.80;99.90
19085;DHT22;9675;51.538;6.728;2022-07-01T11:08:22;22.90;99.90
19085;DHT22;9675;51.538;6.728;2022-07-01T11:10:52;23.00;99.90
19085;DHT22;9675;51.538;6.728;2022-07-01T11:13:22;23.10;99.90
19085;DHT22;9675;51.538;6.728;2022-07-01T11:15:51;23.10;99.90
19085;DHT22;9675;51.538;6.728;2022-07-01T11:18:19;23.20;99.90
19085;DHT22;9675;51.538;6.728;2022-07-01T11:20:53;23.20;99.90
19085;DHT22;9675;51.538;6.728;2022-07-01T11:23:29;23.30;99.90
19085;DHT22;9675;51.538;6.728;2022-07-01T11:25:56;23.50;99.90
19085;DHT22;9675;51.538;6.728;2022-07-01T11:28:24;23.70;99.90
19085;DHT22;9675;51.538;6.728;2022-07-01T11:30:58;23.70;99.90
19085;DHT22;9675;51.538;6.728;2022-07-01T11:33:26;23.80;99.90
19085;DHT22;9675;51.538;6.728;2022-07-01T11:35:55;24.00;99.90
19085;DHT22;9675;51.538;6.728;2022-07-01T11:38:45;24.20;99.90
19085;DHT22;9675;51.538;6.728;2022-07-01T11:41:29;24.30;99.90
19085;DHT22;9675;51.538;6.728;2022-07-01T11:43:57;24.40;99.90
19085;DHT22;9675;51.538;6.728;2022-07-01T11:46:24;24.40;99.90
19085;DHT22;9675;51.538;6.728;2022-07-01T11:48:51;24.40;99.90
19085;DHT22;9675;51.538;6.728;2022-07-01T11:51:22;24.40;99.90
19085;DHT22;9675;51.538;6.728;2022-07-01T11:53:54;24.40;99.90
19085;DHT22;9675;51.538;6.728;2022-07-01T11:56:29;24.50;99.90
19085;DHT22;9675;51.538;6.728;2022-07-01T11:58:57;24.50;99.90
19085;DHT22;9675;51.538;6.728;2022-07-01T12:01:28;24.60;99.90
19085;DHT22;9675;51.538;6.728;2022-07-01T12:03:59;24.60;99.90
19085;DHT22;9675;51.538;6.728;2022-07-01T12:06:30;24.70;99.90
19085;DHT22;9675;51.538;6.728;2022-07-01T12:08:57;24.90;99.90
19085;DHT22;9675;51.538;6.728;2022-07-01T12:11:27;24.90;99.90
19085;DHT22;9675;51.538;6.728;2022-07-01T12:13:55;25.00;99.90
19085;DHT22;9675;51.538;6.728;2022-07-01T12:16:24;25.00;99.90
19085;DHT22;9675;51.538;6.728;2022-07-01T12:18:54;24.90;99.90
19085;DHT22;9675;51.538;6.728;2022-07-01T12:21:24;24.80;99.90
19085;DHT22;9675;51.538;6.728;2022-07-01T12:24:12;24.70;99.90
19085;DHT22;9675;51.538;6.728;2022-07-01T12:26:49;24.80;99.90
19085;DHT22;9675;51.538;6.728;2022-07-01T12:29:20;24.90;99.90
19085;DHT22;9675;51.538;6.728;2022-07-01T12:31:58;25.10;99.90
19085;DHT22;9675;51.538;6.728;2022-07-01T12:34:39;25.20;99.90
19085;DHT22;9675;51.538;6.728;2022-07-01T12:37:09;25.30;99.90
19085;DHT22;9675;51.538;6.728;2022-07-01T12:39:44;25.40;99.90
19085;DHT22;9675;51.538;6.728;2022-07-01T12:42:23;25.50;99.90
19085;DHT22;9675;51.538;6.728;2022-07-01T12:44:53;25.60;99.90
19085;DHT22;9675;51.538;6.728;2022-07-01T12:47:27;25.80;99.90
19085;DHT22;9675;51.538;6.728;2022-07-01T12:50:15;25.90;99.90
19085;DHT22;9675;51.538;6.728;2022-07-01T12:52:57;26.00;99.90
19085;DHT22;9675;51.538;6.728;2022-07-01T12:55:28;26.10;99.90
19085;DHT22;9675;51.538;6.728;2022-07-01T12:57:59;26.10;99.90
19085;DHT22;9675;51.538;6.728;2022-07-01T13:00:27;26.10;99.90
19085;DHT22;9675;51.538;6.728;2022-07-01T13:02:58;26.10;99.90
19085;DHT22;9675;51.538;6.728;2022-07-01T13:05:27;26.10;99.90
19085;DHT22;9675;51.538;6.728;2022-07-01T13:07:57;26.00;99.90
19085;DHT22;9675;51.538;6.728;2022-07-01T13:10:24;26.00;99.90
19085;DHT22;9675;51.538;6.728;2022-07-01T13:12:53;26.00;99.90
19085;DHT22;9675;51.538;6.728;2022-07-01T13:15:21;26.10;99.90
19085;DHT22;9675;51.538;6.728;2022-07-01T13:17:48;26.10;99.90
19085;DHT22;9675;51.538;6.728;2022-07-01T13:20:16;26.30;99.90
19085;DHT22;9675;51.538;6.728;2022-07-01T13:22:44;26.40;99.90
19085;DHT22;9675;51.538;6.728;2022-07-01T13:25:12;26.50;99.90
19085;DHT22;9675;51.538;6.728;2022-07-01T13:27:39;26.60;99.90
19085;DHT22;9675;51.538;6.728;2022-07-01T13:30:11;26.60;99.90
19085;DHT22;9675;51.538;6.728;2022-07-01T13:32:39;26.80;99.90
19085;DHT22;9675;51.538;6.728;2022-07-01T13:35:08;26.80;99.90
19085;DHT22;9675;51.538;6.728;2022-07-01T13:37:36;26.90;99.90
19085;DHT22;9675;51.538;6.728;2022-07-01T13:40:04;26.90;99.90
19085;DHT22;9675;51.538;6.728;2022-07-01T13:42:33;26.90;99.90
19085;DHT22;9675;51.538;6.728;2022-07-01T13:45:00;26.90;99.90
19085;DHT22;9675;51.538;6.728;2022-07-01T13:47:29;27.00;99.90
19085;DHT22;9675;51.538;6.728;2022-07-01T13:49:56;27.00;99.90
19085;DHT22;9675;51.538;6.728;2022-07-01T13:52:24;27.00;99.90
19085;DHT22;9675;51.538;6.728;2022-07-01T13:54:53;27.00;99.90
19085;DHT22;9675;51.538;6.728;2022-07-01T13:57:20;27.00;99.90
19085;DHT22;9675;51.538;6.728;2022-07-01T13:59:48;27.10;99.90
19085;DHT22;9675;51.538;6.728;2022-07-01T14:02:15;27.20;99.90
19085;DHT22;9675;51.538;6.728;2022-07-01T14:04:46;27.10;99.90
19085;DHT22;9675;51.538;6.728;2022-07-01T14:07:16;27.10;99.90
19085;DHT22;9675;51.538;6.728;2022-07-01T14:09:43;26.90;99.90
19085;DHT22;9675;51.538;6.728;2022-07-01T14:12:11;26.80;99.90
19085;DHT22;9675;51.538;6.728;2022-07-01T14:14:41;26.70;99.90
19085;DHT22;9675;51.538;6.728;2022-07-01T14:17:09;26.70;99.90
19085;DHT22;9675;51.538;6.728;2022-07-01T14:19:36;26.70;99.90
19085;DHT22;9675;51.538;6.728;2022-07-01T14:22:06;26.70;99.90
19085;DHT22;9675;51.538;6.728;2022-07-01T14:24:33;26.70;99.90
19085;DHT22;9675;51.538;6.728;2022-07-01T14:27:00;26.60;99.90
19085;DHT22;9675;51.538;6.728;2022-07-01T14:29:28;26.60;99.90
19085;DHT22;9675;51.538;6.728;2022-07-01T14:31:55;26.60;99.90
19085;DHT22;9675;51.538;6.728;2022-07-01T14:34:25;26.60;99.90
19085;DHT22;9675;51.538;6.728;2022-07-01T14:36:52;26.80;99.90
19085;DHT22;9675;51.538;6.728;2022-07-01T14:39:20;26.90;99.90
19085;DHT22;9675;51.538;6.728;2022-07-01T14:41:48;26.90;99.90
19085;DHT22;9675;51.538;6.728;2022-07-01T14:44:17;27.00;99.90
19085;DHT22;9675;51.538;6.728;2022-07-01T14:46:44;27.00;99.90
19085;DHT22;9675;51.538;6.728;2022-07-01T14:49:11;27.10;99.90
19085;DHT22;9675;51.538;6.728;2022-07-01T14:51:41;27.10;99.90
19085;DHT22;9675;51.538;6.728;2022-07-01T14:54:09;27.10;99.90
19085;DHT22;9675;51.538;6.728;2022-07-01T14:56:38;27.20;99.90
19085;DHT22;9675;51.538;6.728;2022-07-01T14:59:06;27.20;99.90
19085;DHT22;9675;51.538;6.728;2022-07-01T15:01:33;27.10;99.90
19085;DHT22;9675;51.538;6.728;2022-07-01T15:04:01;27.00;99.90
19085;DHT22;9675;51.538;6.728;2022-07-01T15:06:28;26.90;99.90
19085;DHT22;9675;51.538;6.728;2022-07-01T15:08:55;26.90;99.90
19085;DHT22;9675;51.538;6.728;2022-07-01T15:11:22;26.90;99.90
19085;DHT22;9675;51.538;6.728;2022-07-01T15:13:50;26.90;99.90
19085;DHT22;9675;51.538;6.728;2022-07-01T15:16:17;26.90;99.90
19085;DHT22;9675;51.538;6.728;2022-07-01T15:18:44;26.90;99.90
19085;DHT22;9675;51.538;6.728;2022-07-01T15:21:12;26.90;99.90
19085;DHT22;9675;51.538;6.728;2022-07-01T15:23:39;26.90;99.90
19085;DHT22;9675;51.538;6.728;2022-07-01T15:26:06;26.90;99.90
19085;DHT22;9675;51.538;6.728;2022-07-01T15:28:33;26.90;99.90
19085;DHT22;9675;51.538;6.728;2022-07-01T15:31:02;26.80;99.90
19085;DHT22;9675;51.538;6.728;2022-07-01T15:33:29;26.80;99.90
19085;DHT22;9675;51.538;6.728;2022-07-01T15:35:56;26.80;99.90
19085;DHT22;9675;51.538;6.728;2022-07-01T15:38:23;26.80;99.90
19085;DHT22;9675;51.538;6.728;2022-07-01T15:40:53;26.80;99.90
19085;DHT22;9675;51.538;6.728;2022-07-01T15:43:21;26.80;99.90
19085;DHT22;9675;51.538;6.728;2022-07-01T15:45:48;26.80;99.90
19085;DHT22;9675;51.538;6.728;2022-07-01T15:48:17;26.80;99.90
19085;DHT22;9675;51.538;6.728;2022-07-01T15:50:44;26.80;99.90
19085;DHT22;9675;51.538;6.728;2022-07-01T15:53:11;26.70;99.90
19085;DHT22;9675;51.538;6.728;2022-07-01T15:55:40;26.70;99.90
19085;DHT22;9675;51.538;6.728;2022-07-01T15:58:08;26.80;99.90
19085;DHT22;9675;51.538;6.728;2022-07-01T16:00:36;26.70;99.90
19085;DHT22;9675;51.538;6.728;2022-07-01T16:03:06;26.70;99.90